• Join FlightAware (Why Join?)
  • Login
  • US Flag 
09:55PM EDT


 

Airport Tracker/Info


-or-


 

Live Flight TrackerFlight Track Log ✈ UAL3820 ✈ 05-May-2013 ✈ KORD - KCLE

Flight Track Log - Related Links

Times and Time Zones

All times are in EDT time to prevent confusion due to time zone crossing. See the UAL3820 flight status page for this flight to view local times or setup timezone preferences in your user account.

Time Position Orientation Groundspeed Altitude Reporting Facility
EDT Latitude Longitude Course Direction KTS MPH feet Rate Location/Type
10:29PM 41.9833 -87.8333 77° East 177 204 2,900  Level Chicago TRACON
10:30PM 41.9833 -87.7500 90° East 238 274 4,500 2,100 Climbing Chicago TRACON
10:32PM 42.0039 -87.5825 81° East 261 300 8,900 2,280 Climbing Chicago Center
10:33PM 42.0569 -87.3224 78° East  Level FlightAware Approximate
10:33PM 42.0250 -87.4858 74° East 269 310 11,100  Level Chicago Center
10:34PM 42.0749 -87.2051 78° East  Level FlightAware Approximate
10:34PM 42.0453 -87.3881 74° East 274 315 13,000  Level Chicago Center
10:35PM 42.0937 -87.0881 77° East  Level FlightAware Approximate
10:35PM 42.0658 -87.2842 75° East 287 330 14,200  Level Chicago Center
10:36PM 42.0908 -87.1697 74° East 316 364 15,300 1,200 Climbing Chicago Center
10:37PM 42.1128 -87.0506 76° East 329 379 16,700 1,260 Climbing Chicago Center
10:38PM 42.1169 -86.9256 87° East 336 387 17,900 1,080 Climbing Chicago Center
10:39PM 42.1211 -86.7975 87° East 342 394 18,900 1,080 Climbing Chicago Center
10:40PM 42.1272 -86.6436 87° East 358 412 20,100 1,080 Climbing Chicago Center
10:41PM 42.1317 -86.5050 87° East 369 425 21,200 1,020 Climbing Chicago Center
10:42PM 42.1364 -86.3644 87° East 376 433 22,200 840 Climbing Chicago Center
10:43PM 42.1406 -86.2214 88° East 382 440 23,000 360 Climbing Chicago Center
10:44PM 42.1431 -86.0722 89° East 396 456 23,000  Level Chicago Center
10:46PM 42.1386 -85.9294 92° East 410 472 23,000  Level Chicago Center
10:47PM 42.1344 -85.7756 92° East 414 476 23,000  Level Chicago Center
10:48PM 42.1286 -85.5889 92° East 417 480 23,000  Level Chicago Center
10:49PM 42.1247 -85.4317 92° East 421 484 23,000  Level Chicago Center
10:50PM 42.1206 -85.2739 92° East 423 487 23,000  Level Chicago Center
10:51PM 42.1150 -85.1153 93° East 427 491 23,000  Level Chicago Center
10:52PM 42.1100 -84.9575 92° East 423 487 23,000  Level Chicago Center
10:53PM 42.0875 -84.7806 100° East 419 482 23,000  Level Cleveland Center
10:54PM 42.0556 -84.6272 106° East 413 475 23,000  Level Cleveland Center
10:55PM 42.0211 -84.4769 107° East 418 481 23,000  Level Cleveland Center
10:56PM 41.9864 -84.3239 107° East 423 487 23,000  Level Cleveland Center
10:57PM 41.9533 -84.1881 108° East 423 487 23,000  Level Cleveland Center
10:58PM 41.9183 -84.0381 107° East 423 487 23,000  Level Cleveland Center
10:59PM 41.8872 -83.8886 106° East 423 487 23,000  Level Cleveland Center
11:00PM 41.8519 -83.7389 108° East 423 487 23,000  Level Cleveland Center
11:01PM 41.8183 -83.5897 107° East 423 487 23,000 -180 Level Cleveland Center
11:02PM 41.7828 -83.4375 107° East 423 487 22,700 -660 Descending Cleveland Center
11:03PM 41.7508 -83.2914 106° East 423 487 21,700 -1,020 Descending Cleveland Center
11:04PM 41.7167 -83.1481 108° East 418 481 20,700 -1,320 Descending Cleveland Center
11:05PM 41.6822 -83.0019 107° East 413 475 19,100 -1,980 Descending Cleveland Center
11:05PM 41.6667 -82.9486 111° Southeast 396 456 18,200 -1,920 Descending Cleveland Center
11:06PM 41.6494 -82.8647 105° East 401 461 17,200 -1,980 Descending Cleveland Center
11:06PM 41.6361 -82.8114 108° East 382 440 16,200 -2,400 Descending Cleveland Center
11:07PM 41.6106 -82.7217 111° Southeast 384 442 14,800 -2,100 Descending Cleveland Center
11:07PM 41.5928 -82.6711 115° Southeast 367 422 13,900 -2,400 Descending Cleveland Center
11:08PM 41.5669 -82.6008 116° Southeast 370 426 12,400 -2,520 Descending Cleveland Center
11:08PM 41.5469 -82.5503 118° Southeast 360 414 11,400 -1,740 Descending Cleveland Center
11:09PM 41.5231 -82.4831 115° Southeast 355 409 10,700 -1,200 Descending Cleveland Center
11:09PM 41.5092 -82.4436 115° Southeast 307 353 10,200 -1,320 Descending Cleveland Center
11:10PM 41.4892 -82.3878 116° Southeast 310 357 9,400 -1,500 Descending Cleveland Center
11:10PM 41.4731 -82.3511 120° Southeast 265 305 8,700 -1,500 Descending Cleveland Center
11:11PM 41.4572 -82.3064 115° Southeast 283 326 7,900 -1,680 Descending Cleveland Center
11:11PM 41.4431 -82.2644 114° Southeast 264 304 7,000 -1,620 Descending Cleveland Center
11:12PM 41.4269 -82.2225 117° Southeast 263 303 6,300 -1,800 Descending Cleveland Center
11:12PM 41.4069 -82.1750 119° Southeast 245 282 5,200 -1,740 Descending Cleveland Center
11:13PM 41.3947 -82.1414 116° Southeast 253 291 4,600 -1,200 Descending Cleveland Center
11:13PM 41.3786 -82.1025 119° Southeast 229 264 4,000 -900 Descending Cleveland Center
11:14PM 41.3667 -82.0717 117° Southeast 232 267 3,700 -1,020 Descending Cleveland Center
11:14PM 41.3483 -82.0353 124° Southeast 184 212 2,900 -1,020 Descending Cleveland Center
11:15PM 41.3464 -82.0103 96° East 194 223 2,700 -540 Descending Cleveland Center
11:15PM 41.3489 -81.9772 84° East 153 176 2,400 -540 Descending Cleveland Center
11:16PM 41.3619 -81.9386 66° East 110 127 1,900 -600 Descending Cleveland Center
11:17PM 41.3811 -81.9003 56° Northeast 129 148 1,300 -600 Descending Cleveland Center